createdAt,value
2023-01-30T00:02:08.334Z,98561.47
2023-01-30T00:04:35.291Z,98550.91
2023-01-30T00:07:02.268Z,98502.44
2023-01-30T00:09:29.178Z,98457.13
2023-01-30T00:11:56.069Z,98459.75
2023-01-30T00:14:22.992Z,98437.50
2023-01-30T00:16:49.971Z,98516.38
2023-01-30T00:19:16.984Z,98507.47
2023-01-30T00:21:43.919Z,98507.47
2023-01-30T00:24:11.159Z,98411.66
2023-01-30T00:26:38.421Z,98496.88
2023-01-30T00:29:05.444Z,98428.81
2023-01-30T00:31:32.454Z,98403.38
2023-01-30T00:33:59.370Z,98471.25
2023-01-30T00:36:26.292Z,98405.97
2023-01-30T00:38:53.167Z,98421.94
2023-01-30T00:41:20.154Z,98409.56
2023-01-30T00:44:05.902Z,98459.31
2023-01-30T00:46:52.871Z,98384.84
2023-01-30T00:49:20.364Z,98412.84
2023-01-30T00:51:47.597Z,98460.16
2023-01-30T00:54:14.722Z,98451.13
2023-01-30T00:56:41.649Z,98445.50
2023-01-30T00:59:08.592Z,98451.16
2023-01-30T01:01:35.666Z,98372.34
2023-01-30T01:04:02.803Z,98433.34
2023-01-30T01:06:29.796Z,98375.59
2023-01-30T01:08:56.739Z,98411.38
2023-01-30T01:11:26.383Z,98409.34
2023-01-30T01:13:58.277Z,98426.88
2023-01-30T01:16:26.177Z,98349.78
2023-01-30T01:18:53.679Z,98405.38
2023-01-30T01:21:21.695Z,98386.88
2023-01-30T01:23:53.283Z,98371.19
2023-01-30T01:26:20.624Z,98400.13
2023-01-30T01:28:47.924Z,98313.75
2023-01-30T01:31:17.003Z,98362.75
2023-01-30T01:33:44.488Z,98322.91
2023-01-30T01:36:12.325Z,98382.47
2023-01-30T01:38:43.317Z,98317.50
2023-01-30T01:41:13.120Z,98358.34
2023-01-30T01:44:03.194Z,98362.06
2023-01-30T01:46:38.968Z,98268.59
2023-01-30T01:49:21.337Z,98282.66
2023-01-30T01:52:12.414Z,98299.72
2023-01-30T01:54:47.484Z,98338.72
2023-01-30T01:57:38.337Z,98259.34
2023-01-30T02:00:15.074Z,98339.00
2023-01-30T02:02:50.128Z,98251.78
2023-01-30T02:05:19.833Z,98302.34
2023-01-30T02:08:54.772Z,98313.66
2023-01-30T02:11:57.214Z,98311.38
2023-01-30T02:14:50.999Z,98302.72
2023-01-30T02:17:38.070Z,98295.13
2023-01-30T02:20:49.629Z,98290.22
2023-01-30T02:24:08.868Z,98280.75
2023-01-30T02:26:47.640Z,98280.59
2023-01-30T02:29:23.741Z,98279.66
2023-01-30T02:32:03.934Z,98235.50
2023-01-30T02:34:48.667Z,98187.72
2023-01-30T02:37:21.330Z,98257.22
2023-01-30T02:40:06.239Z,98257.81
2023-01-30T02:42:51.038Z,98251.09
2023-01-30T02:45:35.034Z,98257.94
2023-01-30T02:48:06.275Z,98225.88
2023-01-30T02:50:41.954Z,98233.81
2023-01-30T02:53:09.183Z,98192.28
2023-01-30T02:55:36.657Z,98156.06
2023-01-30T02:58:05.170Z,98148.13
2023-01-30T03:01:04.003Z,98108.69
2023-01-30T03:03:45.388Z,98202.13
2023-01-30T03:06:40.394Z,98196.34
2023-01-30T03:09:22.220Z,98211.69
2023-01-30T03:12:06.363Z,98206.41
2023-01-30T03:14:49.271Z,98097.03
2023-01-30T03:17:18.756Z,98136.81
2023-01-30T03:19:46.227Z,98158.75
2023-01-30T03:22:13.187Z,98092.56
2023-01-30T03:24:40.441Z,98175.06
2023-01-30T03:27:11.178Z,98158.63
2023-01-30T03:29:38.780Z,98133.31
2023-01-30T03:32:06.532Z,98141.09
2023-01-30T03:34:33.587Z,98138.69
2023-01-30T03:37:00.719Z,98113.41
2023-01-30T03:39:27.776Z,98183.06
2023-01-30T03:41:54.804Z,98128.63
2023-01-30T03:44:21.845Z,98147.44
2023-01-30T03:46:48.769Z,98093.03
2023-01-30T03:49:15.737Z,98089.03
2023-01-30T03:51:42.659Z,98158.41
2023-01-30T03:54:09.600Z,98137.56
2023-01-30T03:56:36.580Z,98065.31
2023-01-30T03:59:04.611Z,98035.78
2023-01-30T04:01:31.560Z,98142.44
2023-01-30T04:03:58.531Z,98132.59
2023-01-30T04:06:25.478Z,98124.41
2023-01-30T04:08:53.985Z,98122.47
2023-01-30T04:11:22.059Z,98088.94
2023-01-30T04:13:48.959Z,98117.78
2023-01-30T04:16:20.643Z,98107.78
2023-01-30T04:18:47.689Z,98097.53
2023-01-30T04:21:15.159Z,98043.03
2023-01-30T04:23:42.912Z,98100.06
2023-01-30T04:26:10.997Z,98088.50
2023-01-30T04:28:38.064Z,98084.91
2023-01-30T04:31:05.286Z,98085.88
2023-01-30T04:33:36.186Z,98057.09
2023-01-30T04:36:04.885Z,98061.66
2023-01-30T04:38:33.192Z,98016.75
2023-01-30T04:41:00.785Z,98078.78
2023-01-30T04:43:29.427Z,98060.91
2023-01-30T04:45:56.643Z,98018.03
2023-01-30T04:48:25.244Z,98060.72
2023-01-30T04:50:54.474Z,98035.56
2023-01-30T04:53:22.171Z,98044.19
2023-01-30T04:55:49.383Z,97971.19
2023-01-30T04:58:17.520Z,98074.25
2023-01-30T05:00:44.457Z,98057.47
2023-01-30T05:03:11.482Z,98071.09
2023-01-30T05:05:38.485Z,98004.75
2023-01-30T05:08:05.825Z,97998.38
2023-01-30T05:10:32.758Z,98046.13
2023-01-30T05:13:04.289Z,97989.53
2023-01-30T05:15:31.775Z,98043.69
2023-01-30T05:17:58.688Z,98040.31
2023-01-30T05:20:25.947Z,97984.00
2023-01-30T05:22:53.039Z,97985.91
2023-01-30T05:25:20.346Z,98032.56
2023-01-30T05:27:47.491Z,97961.38
2023-01-30T05:30:14.522Z,98025.91
2023-01-30T05:32:44.200Z,98011.97
2023-01-30T05:35:11.190Z,98006.97
2023-01-30T05:37:38.188Z,97941.38
2023-01-30T05:40:06.525Z,98002.25
2023-01-30T05:42:33.675Z,97990.97
2023-01-30T05:45:00.556Z,97989.47
2023-01-30T05:47:27.613Z,97995.72
2023-01-30T05:49:54.513Z,98012.31
2023-01-30T05:52:21.494Z,98002.00
2023-01-30T05:54:48.359Z,97978.59
2023-01-30T05:57:15.277Z,97965.53
2023-01-30T05:59:42.209Z,97956.22
2023-01-30T06:02:11.089Z,97945.06
2023-01-30T06:04:38.221Z,97941.88
2023-01-30T06:07:05.192Z,97942.44
2023-01-30T06:09:32.148Z,97936.31
2023-01-30T06:11:59.015Z,97939.94
2023-01-30T06:14:25.939Z,97941.06
2023-01-30T06:16:53.033Z,97944.56
2023-01-30T06:19:19.969Z,97933.97
2023-01-30T06:21:46.847Z,97921.56
2023-01-30T06:24:13.828Z,97935.38
2023-01-30T06:26:40.769Z,97924.34
2023-01-30T06:29:07.706Z,97912.38
2023-01-30T06:31:34.699Z,97916.84
2023-01-30T06:34:01.699Z,97912.81
2023-01-30T06:36:28.630Z,97913.22
2023-01-30T06:38:55.646Z,97918.25
2023-01-30T06:41:22.555Z,97921.16
2023-01-30T06:43:49.726Z,97906.81
2023-01-30T06:46:16.705Z,97911.69
2023-01-30T06:48:43.671Z,97904.72
2023-01-30T06:51:10.597Z,97900.16
2023-01-30T06:53:37.527Z,97897.38
2023-01-30T06:56:04.851Z,97899.59
2023-01-30T06:58:31.783Z,97896.25
2023-01-30T07:00:58.761Z,97879.94
2023-01-30T07:03:25.710Z,97897.94
2023-01-30T07:05:52.767Z,97900.28
2023-01-30T07:08:20.044Z,97897.94
2023-01-30T07:10:47.018Z,97888.84
2023-01-30T07:13:14.413Z,97883.44
2023-01-30T07:15:41.452Z,97885.66
2023-01-30T07:18:08.522Z,97889.59
2023-01-30T07:20:35.509Z,97875.22
2023-01-30T07:23:02.556Z,97869.38
2023-01-30T07:25:29.862Z,97856.56
2023-01-30T07:28:01.789Z,97861.00
2023-01-30T07:30:32.416Z,97862.28
2023-01-30T07:33:00.518Z,97861.00
2023-01-30T07:35:30.012Z,97791.22
2023-01-30T07:37:57.071Z,97844.13
2023-01-30T07:40:24.792Z,97848.03
2023-01-30T07:42:58.809Z,97832.28
2023-01-30T07:45:28.841Z,97832.13
2023-01-30T07:47:55.767Z,97825.44
2023-01-30T07:50:22.741Z,97842.03
2023-01-30T07:52:49.643Z,97831.59
2023-01-30T07:55:16.834Z,97843.13
2023-01-30T07:57:44.325Z,97830.31
2023-01-30T08:00:12.444Z,97830.97
2023-01-30T08:02:39.385Z,97815.50
2023-01-30T08:05:06.673Z,97820.78
2023-01-30T08:07:34.290Z,97827.34
2023-01-30T08:10:01.280Z,97817.03
2023-01-30T08:12:29.317Z,97820.88
2023-01-30T08:14:56.476Z,97838.47
2023-01-30T08:17:23.514Z,97841.28
2023-01-30T08:19:50.475Z,97839.31
2023-01-30T08:22:18.069Z,97827.59
2023-01-30T08:24:44.957Z,97824.78
2023-01-30T08:27:11.932Z,97799.66
2023-01-30T08:29:38.800Z,97785.44
2023-01-30T08:32:05.750Z,97786.81
2023-01-30T08:34:32.789Z,97788.13
2023-01-30T08:36:59.756Z,97790.59
2023-01-30T08:39:26.625Z,97778.41
2023-01-30T08:41:53.582Z,97784.66
2023-01-30T08:44:20.497Z,97783.28
2023-01-30T08:46:47.412Z,97726.22
2023-01-30T08:49:14.447Z,97775.44
2023-01-30T08:51:41.364Z,97797.25
2023-01-30T08:54:08.297Z,97786.22
2023-01-30T08:56:35.617Z,97786.38
2023-01-30T08:59:02.587Z,97787.38
2023-01-30T09:01:29.497Z,97787.50
2023-01-30T09:03:56.467Z,97797.28
2023-01-30T09:06:26.011Z,97789.59
2023-01-30T09:08:53.201Z,97774.34
2023-01-30T09:11:20.136Z,97780.19
2023-01-30T09:13:48.925Z,97780.44
2023-01-30T09:16:16.772Z,97771.78
2023-01-30T09:18:44.838Z,97770.41
2023-01-30T09:21:13.897Z,97766.53
2023-01-30T09:23:41.254Z,97743.00
2023-01-30T09:26:08.349Z,97760.53
2023-01-30T09:28:35.546Z,97746.78
2023-01-30T09:31:03.407Z,97748.50
2023-01-30T09:33:30.751Z,97739.28
2023-01-30T09:35:57.926Z,97746.25
2023-01-30T09:38:24.932Z,97735.78
2023-01-30T09:41:00.995Z,97727.28
2023-01-30T09:43:54.201Z,97738.72
2023-01-30T09:46:36.635Z,97724.91
2023-01-30T09:49:43.280Z,97724.59
2023-01-30T09:52:36.240Z,97707.66
2023-01-30T09:55:14.967Z,97701.22
2023-01-30T09:57:42.091Z,97697.28
2023-01-30T10:00:23.734Z,97694.84
2023-01-30T10:03:09.309Z,97688.63
2023-01-30T10:05:44.985Z,97690.16
2023-01-30T10:08:44.052Z,97691.88
2023-01-30T10:11:35.758Z,97670.03
2023-01-30T10:14:11.539Z,97673.16
2023-01-30T10:17:13.135Z,97655.84
2023-01-30T10:20:32.765Z,97671.56
2023-01-30T10:23:33.966Z,97663.94
2023-01-30T10:26:14.716Z,97648.72
2023-01-30T10:29:06.217Z,97659.81
2023-01-30T10:31:57.516Z,97642.06
2023-01-30T10:34:36.835Z,97652.38
2023-01-30T10:37:25.099Z,97625.56
2023-01-30T10:40:37.692Z,97624.81
2023-01-30T10:43:12.559Z,97620.34
2023-01-30T10:45:47.234Z,97618.34
2023-01-30T10:48:44.003Z,97616.31
2023-01-30T10:51:29.170Z,97610.34
2023-01-30T10:54:05.505Z,97606.91
2023-01-30T10:56:32.348Z,97598.13
2023-01-30T10:59:11.879Z,97544.97
2023-01-30T11:01:45.443Z,97603.44
2023-01-30T11:04:56.908Z,97605.63
2023-01-30T11:07:23.847Z,97588.72
2023-01-30T11:09:50.812Z,97603.06
2023-01-30T11:12:17.767Z,97592.13
2023-01-30T11:14:57.002Z,97587.28
2023-01-30T11:17:32.602Z,97595.56
2023-01-30T11:20:06.330Z,97582.75
2023-01-30T11:22:35.621Z,97570.09
2023-01-30T11:25:15.240Z,97567.13
2023-01-30T11:27:44.768Z,97551.28
2023-01-30T11:30:20.116Z,97567.38
2023-01-30T11:32:49.599Z,97551.66
2023-01-30T11:35:16.439Z,97564.44
2023-01-30T11:37:45.563Z,97556.84
2023-01-30T11:40:18.847Z,97543.91
2023-01-30T11:43:10.886Z,97534.50
2023-01-30T11:45:50.186Z,97545.44
2023-01-30T11:48:33.816Z,97517.19
2023-01-30T11:51:11.266Z,97525.25
2023-01-30T11:53:46.290Z,97522.50
2023-01-30T11:56:22.638Z,97515.09
2023-01-30T11:58:59.086Z,97506.19
2023-01-30T12:01:33.336Z,97516.34
2023-01-30T12:04:01.595Z,97525.75
2023-01-30T12:06:38.383Z,97507.16
2023-01-30T12:09:06.880Z,97502.38
2023-01-30T12:11:36.874Z,97504.41
2023-01-30T12:14:38.064Z,97504.72
2023-01-30T12:17:15.184Z,97474.84
2023-01-30T12:19:52.394Z,97479.84
2023-01-30T12:22:36.502Z,97477.22
2023-01-30T12:25:27.577Z,97478.88
2023-01-30T12:28:20.583Z,97478.25
2023-01-30T12:30:57.040Z,97470.94
2023-01-30T12:33:30.085Z,97476.94
2023-01-30T12:36:08.998Z,97481.44
2023-01-30T12:38:53.369Z,97468.03
2023-01-30T12:41:29.031Z,97486.13
2023-01-30T12:43:58.666Z,97485.13
2023-01-30T12:46:49.986Z,97474.66
2023-01-30T12:49:35.816Z,97486.47
2023-01-30T12:52:28.824Z,97479.16
2023-01-30T12:55:01.654Z,97471.38
2023-01-30T12:57:53.715Z,97469.31
2023-01-30T13:00:41.037Z,97469.63
2023-01-30T13:03:49.758Z,97461.03
2023-01-30T13:06:31.684Z,97464.03
2023-01-30T13:09:08.588Z,97462.38
2023-01-30T13:11:45.535Z,97460.53
2023-01-30T13:14:41.358Z,97459.72
2023-01-30T13:17:11.135Z,97454.75
2023-01-30T13:19:46.811Z,97466.31
2023-01-30T13:22:24.826Z,97461.16
2023-01-30T13:25:27.921Z,97467.50
2023-01-30T13:28:02.701Z,97461.66
2023-01-30T13:30:32.070Z,97454.22
2023-01-30T13:33:03.945Z,97432.16
2023-01-30T13:35:45.472Z,97448.44
2023-01-30T13:38:21.479Z,97441.59
2023-01-30T13:40:52.300Z,97443.75
2023-01-30T13:43:43.013Z,97445.44
2023-01-30T13:46:13.538Z,97444.28
2023-01-30T13:48:55.558Z,97427.19
2023-01-30T13:51:31.117Z,97427.56
2023-01-30T13:54:21.416Z,97416.25
2023-01-30T13:56:54.815Z,97413.47
2023-01-30T14:00:06.356Z,97411.00
2023-01-30T14:02:33.413Z,97405.69
2023-01-30T14:05:03.867Z,97402.53
2023-01-30T14:07:34.451Z,97400.06
2023-01-30T14:10:13.334Z,97400.06
2023-01-30T14:12:52.311Z,97399.22
2023-01-30T14:15:29.351Z,97402.03
2023-01-30T14:18:00.032Z,97397.22
2023-01-30T14:20:32.643Z,97405.38
2023-01-30T14:23:03.784Z,97398.56
2023-01-30T14:25:30.648Z,97401.03
2023-01-30T14:28:00.325Z,97393.75
2023-01-30T14:30:45.381Z,97401.03
2023-01-30T14:33:21.287Z,97406.69
2023-01-30T14:36:01.192Z,97411.19
2023-01-30T14:38:30.798Z,97408.53
2023-01-30T14:41:00.902Z,97405.38
2023-01-30T14:43:43.019Z,97406.56
2023-01-30T14:46:19.283Z,97414.69
2023-01-30T14:48:55.606Z,97409.38
2023-01-30T14:51:40.793Z,97419.00
2023-01-30T14:54:14.760Z,97411.03
2023-01-30T14:56:45.069Z,97412.19
2023-01-30T14:59:21.673Z,97409.72
2023-01-30T15:02:00.197Z,97415.34
2023-01-30T15:05:05.596Z,97416.66
2023-01-30T15:07:50.338Z,97412.03
2023-01-30T15:10:33.074Z,97410.84
2023-01-30T15:13:08.732Z,97424.97
2023-01-30T15:16:04.996Z,97428.31
2023-01-30T15:19:14.200Z,97419.00
2023-01-30T15:21:46.898Z,97424.66
2023-01-30T15:24:13.734Z,97436.28
2023-01-30T15:26:49.506Z,97426.28
2023-01-30T15:29:37.393Z,97424.31
2023-01-30T15:32:18.496Z,97420.66
2023-01-30T15:35:00.997Z,97433.78
2023-01-30T15:37:37.635Z,97435.63
2023-01-30T15:40:31.460Z,97440.59
2023-01-30T15:43:01.140Z,97441.94
2023-01-30T15:45:39.977Z,97454.22
2023-01-30T15:48:35.255Z,97454.22
2023-01-30T15:51:03.783Z,97453.88
2023-01-30T15:53:42.088Z,97459.88
2023-01-30T15:56:12.331Z,97450.59
2023-01-30T15:58:44.601Z,97471.00
2023-01-30T16:01:18.726Z,97470.03
2023-01-30T16:03:46.373Z,97467.53
2023-01-30T16:06:29.937Z,97466.19
2023-01-30T16:09:05.826Z,97462.69
2023-01-30T16:11:41.844Z,97473.81
2023-01-30T16:14:16.905Z,97470.84
2023-01-30T16:16:57.510Z,97483.81
2023-01-30T16:19:31.135Z,97480.81
2023-01-30T16:22:02.584Z,97483.31
2023-01-30T16:24:37.864Z,97490.31
2023-01-30T16:27:08.825Z,97482.81
2023-01-30T16:29:51.323Z,97483.13
2023-01-30T16:32:19.924Z,97501.94
2023-01-30T16:34:46.996Z,97498.44
2023-01-30T16:37:16.910Z,97504.59
2023-01-30T16:39:45.924Z,97507.41
2023-01-30T16:42:26.192Z,97503.09
2023-01-30T16:45:21.316Z,97507.09
2023-01-30T16:47:48.595Z,97499.75
2023-01-30T16:50:22.655Z,97500.25
2023-01-30T16:52:55.477Z,97489.47
2023-01-30T16:55:27.049Z,97498.78
2023-01-30T16:57:58.593Z,97499.44
2023-01-30T17:00:32.810Z,97512.41
2023-01-30T17:03:20.170Z,97511.56
2023-01-30T17:05:49.646Z,97507.09
2023-01-30T17:08:31.586Z,97497.44
2023-01-30T17:10:59.995Z,97502.91
2023-01-30T17:13:38.441Z,97503.09
2023-01-30T17:16:23.695Z,97503.75
2023-01-30T17:18:52.805Z,97516.75
2023-01-30T17:21:21.917Z,97510.25
2023-01-30T17:23:59.173Z,97497.09
2023-01-30T17:26:26.685Z,97505.75
2023-01-30T17:28:53.610Z,97503.09
2023-01-30T17:31:21.523Z,97505.59
2023-01-30T17:33:48.648Z,97506.25
2023-01-30T17:36:23.842Z,97506.09
2023-01-30T17:38:51.879Z,97512.22
2023-01-30T17:41:24.293Z,97521.72
2023-01-30T17:43:51.229Z,97517.22
2023-01-30T17:46:18.567Z,97505.75
2023-01-30T17:48:45.847Z,97512.75
2023-01-30T17:51:14.543Z,97509.41
2023-01-30T17:53:42.164Z,97514.72
2023-01-30T17:56:22.867Z,97505.75
2023-01-30T17:58:52.863Z,97508.56
2023-01-30T18:01:20.024Z,97505.59
2023-01-30T18:03:46.996Z,97493.31
2023-01-30T18:06:15.888Z,97495.78
2023-01-30T18:08:43.223Z,97498.44
2023-01-30T18:11:12.169Z,97489.13
2023-01-30T18:13:41.789Z,97481.50
2023-01-30T18:16:26.070Z,97470.69
2023-01-30T18:18:53.016Z,97484.47
2023-01-30T18:21:22.390Z,97475.16
2023-01-30T18:23:50.228Z,97476.16
2023-01-30T18:26:18.969Z,97488.81
2023-01-30T18:28:46.792Z,97452.88
2023-01-30T18:31:14.163Z,97494.81
2023-01-30T18:33:44.690Z,97480.66
2023-01-30T18:36:17.030Z,97481.50
2023-01-30T18:38:44.259Z,97487.81
2023-01-30T18:41:19.859Z,97489.47
2023-01-30T18:43:48.759Z,97453.56
2023-01-30T18:46:17.368Z,97483.13
2023-01-30T18:48:45.982Z,97479.34
2023-01-30T18:51:16.315Z,97476.47
2023-01-30T18:53:43.746Z,97484.16
2023-01-30T18:56:22.849Z,97475.19
2023-01-30T18:58:49.965Z,97480.50
2023-01-30T19:01:20.301Z,97474.84
2023-01-30T19:03:47.559Z,97475.97
2023-01-30T19:06:16.685Z,97485.47
2023-01-30T19:08:43.787Z,97481.81
2023-01-30T19:11:34.011Z,97474.34
2023-01-30T19:14:01.728Z,97478.47
2023-01-30T19:16:30.645Z,97472.16
2023-01-30T19:18:58.209Z,97473.00
2023-01-30T19:21:25.874Z,97483.13
2023-01-30T19:23:53.926Z,97482.28
2023-01-30T19:26:22.605Z,97479.28
2023-01-30T19:28:50.337Z,97471.97
2023-01-30T19:31:21.221Z,97478.47
2023-01-30T19:33:58.622Z,97480.78
2023-01-30T19:36:27.640Z,97488.41
2023-01-30T19:38:55.063Z,97490.09
2023-01-30T19:41:25.020Z,97484.41
2023-01-30T19:43:54.000Z,97498.25
2023-01-30T19:46:21.609Z,97496.56
2023-01-30T19:48:49.580Z,97483.63
2023-01-30T19:51:22.275Z,97493.25
2023-01-30T19:53:54.802Z,97502.88
2023-01-30T19:56:24.947Z,97499.88
2023-01-30T19:58:55.084Z,97514.69
2023-01-30T20:01:24.326Z,97502.56
2023-01-30T20:03:51.436Z,97508.72
2023-01-30T20:06:21.085Z,97516.50
2023-01-30T20:08:50.439Z,97513.38
2023-01-30T20:11:18.856Z,97511.38
2023-01-30T20:13:46.508Z,97511.69
2023-01-30T20:16:20.884Z,97504.41
2023-01-30T20:18:55.928Z,97504.22
2023-01-30T20:21:23.523Z,97525.69
2023-01-30T20:23:51.624Z,97514.53
2023-01-30T20:26:21.815Z,97509.72
2023-01-30T20:28:49.495Z,97501.91
2023-01-30T20:31:21.827Z,97492.94
2023-01-30T20:33:49.751Z,97515.06
2023-01-30T20:36:19.290Z,97505.41
2023-01-30T20:38:48.140Z,97506.09
2023-01-30T20:41:20.775Z,97515.88
2023-01-30T20:43:51.245Z,97511.06
2023-01-30T20:46:20.744Z,97513.06
2023-01-30T20:48:48.626Z,97514.38
2023-01-30T20:51:18.784Z,97515.53
2023-01-30T20:53:50.886Z,97522.66
2023-01-30T20:56:19.039Z,97513.19
2023-01-30T20:58:46.300Z,97525.31
2023-01-30T21:01:23.580Z,97533.28
2023-01-30T21:03:52.547Z,97527.28
2023-01-30T21:06:37.122Z,97542.44
2023-01-30T21:09:13.216Z,97541.59
2023-01-30T21:11:40.500Z,97542.09
2023-01-30T21:14:07.881Z,97549.06
2023-01-30T21:16:36.216Z,97532.59
2023-01-30T21:19:07.359Z,97560.56
2023-01-30T21:21:44.283Z,97550.25
2023-01-30T21:24:14.911Z,97563.91
2023-01-30T21:26:46.482Z,97563.06
2023-01-30T21:29:20.333Z,97557.56
2023-01-30T21:31:47.486Z,97573.22
2023-01-30T21:34:14.776Z,97575.06
2023-01-30T21:36:41.802Z,97563.28
2023-01-30T21:39:32.008Z,97584.72
2023-01-30T21:42:01.574Z,97573.25
2023-01-30T21:44:37.854Z,97588.06
2023-01-30T21:47:06.820Z,97602.19
2023-01-30T21:49:34.638Z,97590.72
2023-01-30T21:52:01.624Z,97610.03
2023-01-30T21:54:28.635Z,97611.03
2023-01-30T21:56:55.736Z,97608.53
2023-01-30T21:59:22.658Z,97615.38
2023-01-30T22:01:49.595Z,97626.50
2023-01-30T22:04:16.591Z,97631.16
2023-01-30T22:06:44.082Z,97635.66
2023-01-30T22:09:15.655Z,97642.16
2023-01-30T22:11:43.320Z,97644.47
2023-01-30T22:14:13.547Z,97642.31
2023-01-30T22:16:41.239Z,97645.13
2023-01-30T22:19:08.510Z,97642.47
2023-01-30T22:21:40.452Z,97637.34
2023-01-30T22:24:09.768Z,97651.13
2023-01-30T22:26:36.923Z,97639.66
2023-01-30T22:29:05.449Z,97655.28
2023-01-30T22:31:35.234Z,97650.31
2023-01-30T22:34:03.760Z,97650.47
2023-01-30T22:36:32.698Z,97646.16
2023-01-30T22:38:59.842Z,97647.47
2023-01-30T22:41:28.117Z,97652.13
2023-01-30T22:43:57.536Z,97653.16
2023-01-30T22:46:31.726Z,97656.47
2023-01-30T22:49:00.512Z,97658.13
2023-01-30T22:51:32.357Z,97657.47
2023-01-30T22:54:01.991Z,97657.47
2023-01-30T22:56:39.589Z,97664.81
2023-01-30T22:59:08.013Z,97673.09
2023-01-30T23:01:38.228Z,97687.56
2023-01-30T23:04:10.931Z,97683.41
2023-01-30T23:06:38.457Z,97686.91
2023-01-30T23:09:07.232Z,97687.34
2023-01-30T23:11:37.238Z,97689.38
2023-01-30T23:14:16.429Z,97685.63
2023-01-30T23:16:45.171Z,97692.78
2023-01-30T23:19:13.447Z,97690.00
2023-01-30T23:21:46.120Z,97697.34
2023-01-30T23:24:19.412Z,97696.97
2023-01-30T23:26:49.250Z,97709.31
2023-01-30T23:29:18.799Z,97693.34
2023-01-30T23:31:47.283Z,97704.97
2023-01-30T23:34:18.024Z,97698.97
2023-01-30T23:36:45.934Z,97710.81
2023-01-30T23:39:14.805Z,97688.53
2023-01-30T23:41:43.011Z,97697.00
2023-01-30T23:44:10.654Z,97678.38
2023-01-30T23:46:40.639Z,97676.22
2023-01-30T23:49:11.622Z,97692.38
2023-01-30T23:51:41.106Z,97691.34
2023-01-30T23:54:09.485Z,97689.72
2023-01-30T23:56:38.850Z,97693.88
2023-01-30T23:59:06.294Z,97703.03
